createdAt,value
2022-11-20T00:00:00.977Z,41.88
2022-11-20T00:02:30.043Z,33.78
2022-11-20T00:04:58.943Z,48.70
2022-11-20T00:07:28.264Z,58.63
2022-11-20T00:09:56.502Z,51.70
2022-11-20T00:12:25.458Z,51.22
2022-11-20T00:14:53.918Z,46.55
2022-11-20T00:17:23.810Z,39.95
2022-11-20T00:19:53.064Z,42.67
2022-11-20T00:22:21.857Z,41.67
2022-11-20T00:24:50.993Z,43.60
2022-11-20T00:27:20.947Z,38.30
2022-11-20T00:29:49.336Z,40.53
2022-11-20T00:32:18.010Z,36.80
2022-11-20T00:34:48.004Z,32.13
2022-11-20T00:37:17.006Z,35.13
2022-11-20T00:39:46.398Z,38.85
2022-11-20T00:42:16.416Z,32.08
2022-11-20T00:44:45.186Z,33.08
2022-11-20T00:47:14.940Z,31.55
2022-11-20T00:49:44.131Z,29.05
2022-11-20T00:52:13.248Z,29.77
2022-11-20T00:54:41.809Z,51.75
2022-11-20T00:57:12.470Z,35.53
2022-11-20T00:59:54.235Z,31.73
2022-11-20T01:02:25.513Z,26.38
2022-11-20T01:04:55.017Z,26.02
2022-11-20T01:07:30.351Z,27.80
2022-11-20T01:09:58.617Z,24.83
2022-11-20T01:12:27.432Z,23.00
2022-11-20T01:14:56.388Z,24.35
2022-11-20T01:17:27.115Z,26.90
2022-11-20T01:19:58.733Z,29.88
2022-11-20T01:22:28.533Z,29.00
2022-11-20T01:24:58.114Z,27.30
2022-11-20T01:27:26.772Z,25.98
2022-11-20T01:30:00.966Z,28.90
2022-11-20T01:32:32.691Z,25.75
2022-11-20T01:35:02.146Z,27.92
2022-11-20T01:37:31.013Z,27.13
2022-11-20T01:39:59.564Z,24.15
2022-11-20T01:42:47.742Z,27.27
2022-11-20T01:45:36.609Z,25.88
2022-11-20T01:48:06.182Z,26.30
2022-11-20T01:50:35.186Z,24.15
2022-11-20T01:53:07.048Z,26.10
2022-11-20T01:55:38.537Z,27.38
2022-11-20T01:58:07.991Z,27.85
2022-11-20T02:00:37.213Z,26.20
2022-11-20T02:03:09.350Z,25.48
2022-11-20T02:05:48.590Z,24.30
2022-11-20T02:08:19.933Z,26.35
2022-11-20T02:10:49.019Z,26.85
2022-11-20T02:13:36.720Z,27.33
2022-11-20T02:16:06.155Z,27.50
2022-11-20T02:18:35.229Z,34.65
2022-11-20T02:21:22.680Z,30.55
2022-11-20T02:24:04.668Z,32.40
2022-11-20T02:26:35.308Z,30.02
2022-11-20T02:29:05.729Z,30.27
2022-11-20T02:31:43.168Z,28.15
2022-11-20T02:34:13.131Z,31.05
2022-11-20T02:36:43.562Z,31.35
2022-11-20T02:39:13.506Z,30.77
2022-11-20T02:41:41.886Z,32.38
2022-11-20T02:44:12.750Z,31.92
2022-11-20T02:46:41.545Z,31.73
2022-11-20T02:49:12.025Z,32.28
2022-11-20T02:51:42.185Z,33.33
2022-11-20T02:54:12.109Z,31.48
2022-11-20T02:56:42.281Z,30.35
2022-11-20T02:59:12.434Z,31.55
2022-11-20T03:01:40.820Z,32.47
2022-11-20T03:04:10.553Z,31.70
2022-11-20T03:06:38.857Z,32.40
2022-11-20T03:09:08.915Z,46.03
2022-11-20T03:11:37.357Z,32.28
2022-11-20T03:14:06.548Z,51.05
2022-11-20T03:16:34.895Z,46.42
2022-11-20T03:19:03.948Z,36.45
2022-11-20T03:21:34.744Z,43.10
2022-11-20T03:24:04.513Z,38.88
2022-11-20T03:26:33.418Z,36.20
2022-11-20T03:29:05.885Z,42.83
2022-11-20T03:31:41.304Z,35.33
2022-11-20T03:34:14.037Z,32.15
2022-11-20T03:36:44.274Z,36.08
2022-11-20T03:39:13.028Z,40.17
2022-11-20T03:41:43.715Z,37.47
2022-11-20T03:44:13.977Z,37.92
2022-11-20T03:46:42.673Z,35.28
2022-11-20T03:49:11.349Z,35.72
2022-11-20T03:51:41.040Z,34.60
2022-11-20T03:54:11.350Z,35.25
2022-11-20T03:56:42.249Z,37.60
2022-11-20T03:59:13.032Z,37.17
2022-11-20T04:01:44.313Z,33.92
2022-11-20T04:04:20.005Z,34.80
2022-11-20T04:06:48.252Z,37.70
2022-11-20T04:09:16.872Z,34.65
2022-11-20T04:11:46.466Z,38.05
2022-11-20T04:14:19.403Z,35.20
2022-11-20T04:16:47.695Z,36.40
2022-11-20T04:19:17.589Z,34.30
2022-11-20T04:21:46.142Z,36.47
2022-11-20T04:24:14.866Z,35.90
2022-11-20T04:26:43.784Z,34.20
2022-11-20T04:29:13.651Z,32.80
2022-11-20T04:31:41.907Z,33.50
2022-11-20T04:34:13.848Z,33.53
2022-11-20T04:36:43.482Z,37.03
2022-11-20T04:39:14.685Z,36.90
2022-11-20T04:41:43.647Z,36.65
2022-11-20T04:44:13.333Z,37.72
2022-11-20T04:46:42.957Z,39.60
2022-11-20T04:49:13.023Z,33.33
2022-11-20T04:51:43.436Z,37.63
2022-11-20T04:54:13.507Z,38.80
2022-11-20T04:56:43.271Z,35.05
2022-11-20T04:59:13.906Z,37.75
2022-11-20T05:01:42.490Z,33.85
2022-11-20T05:04:12.608Z,35.55
2022-11-20T05:06:43.083Z,36.42
2022-11-20T05:09:12.405Z,39.75
2022-11-20T05:11:42.435Z,36.60
2022-11-20T05:14:11.088Z,35.67
2022-11-20T05:16:40.584Z,34.72
2022-11-20T05:19:09.191Z,37.55
2022-11-20T05:21:38.931Z,33.95
2022-11-20T05:24:08.068Z,33.97
2022-11-20T05:26:36.896Z,34.83
2022-11-20T05:29:05.935Z,35.47
2022-11-20T05:31:34.525Z,36.92
2022-11-20T05:34:04.042Z,38.45
2022-11-20T05:36:32.512Z,34.35
2022-11-20T05:39:02.214Z,37.88
2022-11-20T05:41:33.278Z,40.15
2022-11-20T05:44:02.385Z,37.90
2022-11-20T05:46:31.622Z,38.92
2022-11-20T05:49:01.705Z,64.60
2022-11-20T05:51:32.429Z,81.97
2022-11-20T05:54:01.095Z,41.50
2022-11-20T05:56:29.329Z,62.08
2022-11-20T05:58:58.108Z,64.97
2022-11-20T06:01:27.193Z,42.25
2022-11-20T06:03:58.620Z,36.05
2022-11-20T06:06:27.389Z,49.88
2022-11-20T06:08:56.947Z,43.20
2022-11-20T06:11:26.539Z,38.47
2022-11-20T06:13:56.152Z,36.05
2022-11-20T06:16:24.466Z,38.95
2022-11-20T06:18:54.055Z,37.65
2022-11-20T06:21:24.064Z,41.25
2022-11-20T06:23:55.335Z,48.70
2022-11-20T06:26:28.891Z,43.28
2022-11-20T06:28:59.129Z,52.00
2022-11-20T06:31:27.677Z,50.88
2022-11-20T06:33:57.091Z,50.92
2022-11-20T06:36:29.275Z,36.42
2022-11-20T06:39:00.102Z,52.70
2022-11-20T06:41:29.134Z,37.47
2022-11-20T06:44:00.958Z,48.15
2022-11-20T06:46:30.264Z,41.17
2022-11-20T06:48:59.405Z,48.15
2022-11-20T06:51:29.171Z,37.28
2022-11-20T06:54:01.994Z,56.28
2022-11-20T06:56:31.816Z,39.42
2022-11-20T06:59:05.196Z,80.28
2022-11-20T07:01:33.669Z,50.20
2022-11-20T07:04:04.431Z,43.28
2022-11-20T07:06:33.653Z,43.55
2022-11-20T07:09:08.554Z,40.55
2022-11-20T07:11:41.182Z,51.40
2022-11-20T07:14:11.579Z,40.17
2022-11-20T07:16:39.836Z,36.25
2022-11-20T07:19:10.490Z,41.92
2022-11-20T07:21:39.807Z,39.67
2022-11-20T07:24:13.812Z,36.45
2022-11-20T07:26:43.143Z,73.60
2022-11-20T07:29:11.881Z,50.97
2022-11-20T07:31:41.056Z,118.30
2022-11-20T07:34:10.051Z,82.35
2022-11-20T07:36:40.088Z,49.65
2022-11-20T07:39:08.828Z,63.40
2022-11-20T07:41:43.055Z,59.25
2022-11-20T07:44:14.483Z,110.10
2022-11-20T07:46:45.450Z,92.63
2022-11-20T07:49:17.029Z,75.75
2022-11-20T07:51:47.887Z,75.13
2022-11-20T07:54:19.910Z,65.25
2022-11-20T07:56:48.623Z,67.03
2022-11-20T07:59:18.243Z,62.38
2022-11-20T08:01:46.536Z,52.95
2022-11-20T08:04:17.294Z,59.92
2022-11-20T08:06:45.716Z,58.38
2022-11-20T08:09:16.942Z,52.22
2022-11-20T08:12:05.875Z,57.72
2022-11-20T08:14:37.280Z,78.38
2022-11-20T08:17:07.709Z,78.55
2022-11-20T08:19:38.566Z,58.35
2022-11-20T08:22:07.339Z,74.95
2022-11-20T08:24:36.549Z,52.67
2022-11-20T08:27:06.617Z,72.00
2022-11-20T08:29:36.369Z,64.40
2022-11-20T08:32:09.187Z,75.97
2022-11-20T08:34:40.610Z,63.85
2022-11-20T08:37:09.343Z,52.55
2022-11-20T08:39:38.967Z,49.88
2022-11-20T08:42:12.135Z,59.42
2022-11-20T08:44:42.942Z,64.65
2022-11-20T08:47:11.321Z,75.57
2022-11-20T08:49:40.087Z,57.03
2022-11-20T08:52:08.432Z,61.85
2022-11-20T08:54:37.362Z,67.30
2022-11-20T08:57:07.463Z,64.82
2022-11-20T09:00:05.611Z,63.20
2022-11-20T09:02:25.772Z,61.58
2022-11-20T09:04:55.428Z,54.17
2022-11-20T09:07:24.280Z,69.70
2022-11-20T09:10:22.103Z,71.97
2022-11-20T09:12:50.810Z,99.28
2022-11-20T09:18:06.139Z,88.40
2022-11-20T09:20:55.244Z,78.50
2022-11-20T09:23:24.251Z,51.30
2022-11-20T09:25:56.908Z,471.92
2022-11-20T09:28:26.716Z,311.08
2022-11-20T09:30:56.487Z,633.60
2022-11-20T09:33:26.177Z,652.83
2022-11-20T09:35:55.337Z,95.15
2022-11-20T09:38:29.690Z,60.83
2022-11-20T09:41:27.673Z,50.25
2022-11-20T09:44:02.081Z,54.35
2022-11-20T09:46:49.083Z,115.15
2022-11-20T09:49:36.437Z,89.18
2022-11-20T09:52:14.783Z,54.30
2022-11-20T09:54:45.385Z,52.17
2022-11-20T10:06:13.171Z,140.32
2022-11-20T10:08:46.179Z,55.67
2022-11-20T10:11:35.279Z,50.85
2022-11-20T10:14:11.313Z,53.53
2022-11-20T10:17:04.611Z,48.28
2022-11-20T10:19:33.027Z,53.40
2022-11-20T10:22:03.231Z,55.00
2022-11-20T10:24:41.713Z,56.45
2022-11-20T10:27:16.913Z,48.97
2022-11-20T10:29:49.012Z,59.50
2022-11-20T10:32:37.210Z,79.03
2022-11-20T10:35:28.371Z,75.88
2022-11-20T10:38:14.937Z,56.30
2022-11-20T10:40:47.940Z,60.20
2022-11-20T10:45:55.042Z,72.85
2022-11-20T10:48:40.929Z,69.82
2022-11-20T10:51:33.722Z,76.63
2022-11-20T10:54:06.070Z,63.60
2022-11-20T10:56:46.873Z,86.20
2022-11-20T10:59:42.358Z,77.18
2022-11-20T11:02:22.310Z,52.55
2022-11-20T11:04:57.301Z,53.70
2022-11-20T11:07:30.102Z,85.10
2022-11-20T11:10:01.103Z,47.73
2022-11-20T11:12:33.950Z,42.55
2022-11-20T11:15:05.227Z,49.78
2022-11-20T11:17:35.916Z,50.15
2022-11-20T11:20:22.266Z,57.05
2022-11-20T11:23:05.066Z,65.90
2022-11-20T11:25:38.617Z,64.10
2022-11-20T11:28:21.796Z,68.80
2022-11-20T11:31:02.927Z,163.10
2022-11-20T11:33:32.847Z,65.43
2022-11-20T11:36:04.502Z,61.30
2022-11-20T11:38:37.501Z,73.22
2022-11-20T11:41:08.957Z,81.68
2022-11-20T11:43:57.579Z,50.85
2022-11-20T11:46:46.188Z,80.63
2022-11-20T11:49:22.057Z,58.15
2022-11-20T11:52:05.507Z,48.08
2022-11-20T11:54:55.810Z,52.50
2022-11-20T11:57:44.815Z,39.80
2022-11-20T12:00:16.262Z,41.33
2022-11-20T12:02:45.423Z,35.58
2022-11-20T12:05:22.560Z,43.78
2022-11-20T12:08:51.301Z,56.78
2022-11-20T12:12:02.585Z,47.58
2022-11-20T12:14:54.812Z,38.30
2022-11-20T12:17:31.806Z,46.38
2022-11-20T12:20:37.254Z,51.17
2022-11-20T12:23:22.869Z,44.95
2022-11-20T12:25:54.941Z,49.40
2022-11-20T12:28:34.640Z,46.55
2022-11-20T12:31:24.869Z,54.42
2022-11-20T12:34:10.471Z,46.95
2022-11-20T12:36:47.322Z,55.83
2022-11-20T12:39:20.402Z,42.40
2022-11-20T12:42:20.305Z,35.70
2022-11-20T12:45:12.321Z,241.55
2022-11-20T12:48:02.082Z,67.15
2022-11-20T12:50:53.238Z,224.95
2022-11-20T12:53:47.112Z,219.18
2022-11-20T12:56:36.172Z,159.18
2022-11-20T12:59:07.087Z,115.78
2022-11-20T13:01:42.083Z,96.45
2022-11-20T13:04:15.716Z,52.78
2022-11-20T13:06:46.200Z,44.63
2022-11-20T13:09:19.010Z,63.85
2022-11-20T13:11:54.157Z,57.53
2022-11-20T13:14:31.000Z,51.80
2022-11-20T13:17:21.967Z,64.03
2022-11-20T13:20:02.961Z,61.92
2022-11-20T13:22:45.143Z,81.38
2022-11-20T13:25:36.439Z,56.83
2022-11-20T13:28:35.867Z,60.60
2022-11-20T13:31:12.504Z,55.92
2022-11-20T13:33:42.469Z,60.53
2022-11-20T13:36:31.556Z,73.55
2022-11-20T13:39:05.521Z,56.13
2022-11-20T13:41:39.196Z,53.30
2022-11-20T13:44:16.773Z,54.55
2022-11-20T13:46:47.463Z,52.83
2022-11-20T13:49:47.027Z,55.80
2022-11-20T13:52:46.025Z,59.10
2022-11-20T13:55:15.864Z,48.03
2022-11-20T13:57:46.324Z,62.75
2022-11-20T14:03:51.237Z,52.17
2022-11-20T14:06:53.419Z,50.17
2022-11-20T14:09:54.632Z,56.92
2022-11-20T14:12:34.985Z,50.75
2022-11-20T14:15:25.036Z,55.40
2022-11-20T14:17:56.682Z,44.38
2022-11-20T14:20:33.045Z,47.00
2022-11-20T14:23:02.410Z,38.00
2022-11-20T14:25:32.247Z,40.90
2022-11-20T14:28:06.994Z,45.17
2022-11-20T14:30:55.959Z,44.63
2022-11-20T14:36:28.342Z,70.45
2022-11-20T14:38:59.928Z,63.92
2022-11-20T14:41:29.548Z,83.57
2022-11-20T14:46:52.574Z,70.95
2022-11-20T14:49:21.940Z,90.97
2022-11-20T14:52:04.707Z,67.05
2022-11-20T14:54:37.844Z,85.13
2022-11-20T14:57:37.712Z,241.25
2022-11-20T15:00:10.563Z,437.15
2022-11-20T15:02:49.356Z,195.27
2022-11-20T15:05:25.165Z,94.20
2022-11-20T15:08:08.151Z,73.60
2022-11-20T15:10:45.339Z,53.22
2022-11-20T15:13:16.699Z,89.38
2022-11-20T15:15:49.940Z,72.22
2022-11-20T15:18:46.688Z,87.53
2022-11-20T15:21:26.457Z,102.82
2022-11-20T15:23:57.039Z,58.88
2022-11-20T15:26:28.007Z,52.92
2022-11-20T15:29:05.089Z,44.88
2022-11-20T15:31:34.726Z,101.70
2022-11-20T15:34:24.139Z,105.75
2022-11-20T15:37:11.604Z,103.95
2022-11-20T15:39:41.665Z,78.93
2022-11-20T15:42:09.949Z,58.03
2022-11-20T15:44:39.537Z,47.30
2022-11-20T15:47:08.536Z,83.80
2022-11-20T15:49:38.043Z,66.45
2022-11-20T15:52:10.854Z,71.80
2022-11-20T15:54:40.401Z,88.80
2022-11-20T15:57:08.993Z,97.28
2022-11-20T15:59:42.291Z,81.97
2022-11-20T16:02:19.133Z,51.50
2022-11-20T16:05:02.497Z,93.90
2022-11-20T16:07:36.523Z,71.38
2022-11-20T16:10:14.797Z,80.30
2022-11-20T16:13:04.318Z,68.93
2022-11-20T16:15:52.345Z,70.57
2022-11-20T16:21:13.832Z,42.92
2022-11-20T16:23:45.696Z,162.07
2022-11-20T16:26:18.959Z,70.72
2022-11-20T16:29:03.721Z,88.32
2022-11-20T16:31:37.749Z,52.75
2022-11-20T16:34:11.796Z,83.75
2022-11-20T16:36:45.669Z,68.05
2022-11-20T16:39:44.654Z,92.82
2022-11-20T16:42:14.309Z,131.18
2022-11-20T16:44:42.451Z,81.13
2022-11-20T16:47:18.428Z,101.90
2022-11-20T16:49:47.584Z,101.47
2022-11-20T16:52:20.340Z,67.50
2022-11-20T16:54:49.303Z,81.50
2022-11-20T16:57:19.334Z,70.18
2022-11-20T16:59:50.273Z,109.50
2022-11-20T17:02:19.078Z,66.28
2022-11-20T17:04:47.571Z,65.25
2022-11-20T17:07:16.279Z,105.05
2022-11-20T17:09:44.567Z,90.05
2022-11-20T17:12:14.940Z,80.38
2022-11-20T17:14:44.695Z,105.20
2022-11-20T17:17:15.674Z,74.15
2022-11-20T17:19:44.961Z,102.57
2022-11-20T17:22:14.158Z,58.47
2022-11-20T17:24:42.509Z,46.35
2022-11-20T17:27:12.602Z,64.10
2022-11-20T17:29:42.325Z,115.53
2022-11-20T17:32:24.099Z,68.25
2022-11-20T17:34:53.312Z,79.03
2022-11-20T17:37:22.221Z,177.70
2022-11-20T17:39:50.450Z,135.40
2022-11-20T17:42:27.919Z,77.38
2022-11-20T17:44:57.409Z,63.58
2022-11-20T17:47:26.984Z,60.97
2022-11-20T17:49:55.592Z,57.38
2022-11-20T17:52:28.175Z,57.50
2022-11-20T17:54:59.212Z,89.63
2022-11-20T17:57:46.736Z,76.28
2022-11-20T18:00:21.012Z,84.07
2022-11-20T18:03:01.433Z,74.50
2022-11-20T18:05:30.739Z,68.70
2022-11-20T18:08:03.689Z,67.03
2022-11-20T18:10:35.895Z,76.63
2022-11-20T18:13:07.176Z,61.40
2022-11-20T18:15:36.104Z,60.97
2022-11-20T18:18:08.461Z,70.70
2022-11-20T18:20:39.959Z,69.88
2022-11-20T18:23:10.718Z,64.38
2022-11-20T18:25:43.555Z,85.85
2022-11-20T18:28:13.051Z,78.80
2022-11-20T18:30:41.324Z,79.25
2022-11-20T18:33:10.041Z,75.85
2022-11-20T18:35:43.048Z,77.22
2022-11-20T18:38:13.016Z,98.03
2022-11-20T18:40:43.228Z,131.07
2022-11-20T18:43:38.143Z,104.35
2022-11-20T18:46:12.164Z,122.53
2022-11-20T18:48:42.161Z,162.30
2022-11-20T18:51:16.321Z,123.05
2022-11-20T18:53:47.694Z,90.47
2022-11-20T18:56:16.294Z,112.15
2022-11-20T18:58:45.074Z,170.93
2022-11-20T19:01:18.567Z,126.22
2022-11-20T19:07:17.147Z,121.38
2022-11-20T19:12:40.690Z,202.75
2022-11-20T19:21:10.223Z,242.98
2022-11-20T19:26:55.430Z,145.25
2022-11-20T19:29:26.324Z,156.48
2022-11-20T19:32:06.797Z,118.60
2022-11-20T19:34:37.244Z,96.93
2022-11-20T19:37:12.151Z,110.85
2022-11-20T19:45:15.900Z,160.85
2022-11-20T19:48:07.081Z,127.43
2022-11-20T19:50:36.466Z,165.55
2022-11-20T19:53:05.084Z,168.32
2022-11-20T19:55:37.074Z,124.78
2022-11-20T19:58:06.585Z,113.28
2022-11-20T20:00:35.244Z,109.60
2022-11-20T20:03:05.940Z,112.45
2022-11-20T20:05:35.025Z,99.93
2022-11-20T20:08:04.212Z,89.85
2022-11-20T20:10:36.288Z,80.80
2022-11-20T20:13:15.973Z,109.85
2022-11-20T20:15:46.140Z,114.15
2022-11-20T20:18:15.205Z,127.53
2022-11-20T20:20:44.033Z,136.00
2022-11-20T20:23:12.705Z,158.07
2022-11-20T20:25:42.280Z,202.85
2022-11-20T20:28:11.342Z,222.48
2022-11-20T20:30:39.743Z,172.20
2022-11-20T20:33:17.094Z,145.43
2022-11-20T20:35:50.411Z,151.52
2022-11-20T20:38:43.420Z,103.55
2022-11-20T20:41:11.773Z,83.00
2022-11-20T20:44:00.093Z,83.03
2022-11-20T20:46:29.524Z,100.47
2022-11-20T20:49:00.010Z,105.25
2022-11-20T20:51:36.166Z,183.57
2022-11-20T20:54:06.013Z,226.73
2022-11-20T20:56:35.251Z,144.15
2022-11-20T20:59:10.600Z,116.53
2022-11-20T21:01:38.781Z,216.77
2022-11-20T21:04:07.667Z,201.57
2022-11-20T21:06:38.820Z,151.38
2022-11-20T21:09:14.497Z,131.17
2022-11-20T21:12:27.192Z,89.13
2022-11-20T21:15:04.106Z,138.77
2022-11-20T21:17:32.368Z,149.68
2022-11-20T21:20:21.540Z,121.30
2022-11-20T21:22:53.807Z,115.72
2022-11-20T21:25:25.703Z,104.95
2022-11-20T21:27:54.717Z,163.40
2022-11-20T21:30:24.411Z,84.68
2022-11-20T21:32:52.677Z,206.23
2022-11-20T21:35:26.468Z,235.80
2022-11-20T21:38:05.885Z,189.70
2022-11-20T21:40:36.418Z,114.28
2022-11-20T21:43:04.783Z,169.90
2022-11-20T21:45:33.741Z,150.43
2022-11-20T21:48:02.195Z,152.32
2022-11-20T21:50:31.267Z,169.68
2022-11-20T21:53:01.476Z,97.20
2022-11-20T21:55:36.583Z,118.53
2022-11-20T21:58:05.396Z,139.20
2022-11-20T22:00:36.467Z,92.43
2022-11-20T22:03:08.318Z,196.20
2022-11-20T22:05:40.050Z,102.10
2022-11-20T22:08:08.835Z,168.75
2022-11-20T22:10:37.520Z,127.03
2022-11-20T22:13:26.245Z,79.93
2022-11-20T22:16:02.121Z,103.45
2022-11-20T22:18:30.761Z,111.90
2022-11-20T22:21:06.133Z,169.40
2022-11-20T22:23:37.243Z,90.30
2022-11-20T22:26:15.917Z,119.95
2022-11-20T22:28:49.165Z,105.72
2022-11-20T22:31:18.664Z,337.10
2022-11-20T22:33:50.297Z,210.15
2022-11-20T22:36:29.555Z,183.30
2022-11-20T22:38:58.927Z,97.68
2022-11-20T22:41:33.263Z,123.47
2022-11-20T22:44:05.858Z,88.85
2022-11-20T22:46:36.325Z,83.72
2022-11-20T22:49:10.275Z,84.68
2022-11-20T22:51:41.256Z,84.93
2022-11-20T22:54:12.110Z,61.65
2022-11-20T22:56:43.223Z,97.53
2022-11-20T22:59:12.175Z,66.03
2022-11-20T23:01:41.167Z,72.15
2022-11-20T23:04:14.537Z,69.43
2022-11-20T23:06:43.833Z,80.72
2022-11-20T23:09:13.215Z,83.80
2022-11-20T23:11:42.388Z,68.90
2022-11-20T23:14:26.384Z,81.15
2022-11-20T23:16:56.467Z,75.22
2022-11-20T23:19:24.844Z,73.32
2022-11-20T23:21:54.344Z,73.60
2022-11-20T23:24:23.045Z,63.53
2022-11-20T23:26:54.894Z,354.00
2022-11-20T23:29:23.670Z,69.30
2022-11-20T23:31:52.826Z,76.88
2022-11-20T23:34:21.167Z,87.75
2022-11-20T23:36:50.663Z,69.90
2022-11-20T23:39:19.218Z,65.85
2022-11-20T23:41:49.389Z,98.07
2022-11-20T23:44:17.876Z,77.95
2022-11-20T23:46:55.091Z,76.80
2022-11-20T23:49:25.083Z,67.43
2022-11-20T23:51:54.343Z,62.72
2022-11-20T23:54:22.586Z,69.57
2022-11-20T23:56:51.405Z,70.97
2022-11-20T23:59:20.394Z,69.90
